KLND

Hunt Field Airport

Lander, Wyoming, USA
METAR KLND 180153Z AUTO 00000KT 10SM CLR M05/M09 A2992 RMK AO2 SLP179 T10501094
Observed Flight Rules
Dec-18 @ 01:53 UTC (an hour ago) Visual Flight Rules
Wind Visibility Clouds
Calm 10 miles
  • Clear skies
Temperatures Readings
Current -5°C / 23°F
Dewpoint -9°C / 16°F
Humidity 74%
Altimeter 29.92" Hg
Pressure 1017.9 hPa
Elevation 1694
METAR KLND 180153Z AUTO 00000KT 10SM CLR M05/M09 A2992 RMK AO2 SLP179 T10501094
Observed Flight Rules
Dec-18 @ 01:53 UTC
(an hour ago)
VFR
Wind Visibility
Calm 10 miles
Clouds
  • Clear skies
Temperature Dewpoint
-5°C / 23°F -9°C / 16°F
Humidity Altimeter Pressure
74% 29.92" Hg 1017.9 hPa